Time;durP1;ratioP1;P1;durP2;ratioP2;P2;SDS_P1;SDS_P2;PMS_P1;PMS_P2;Temp;Humidity;BMP_temperature;BMP_pressure;BME280_temperature;BME280_humidity;BME280_pressure;Samples;Min_cycle;Max_cycle;Signal;HPM_P1;HPM_P2
2022/09/28 00:01:35;;;;;;;0.93;0.93;;;;;;;18.95;100.00;99394.25;4974603;28;20038;-49
2022/09/28 00:04:00;;;;;;;2.88;1.83;;;;;;;18.81;100.00;99385.97;4996669;28;20114;-48
2022/09/28 00:06:29;;;;;;;6.93;0.85;;;;;;;16.06;100.00;99386.25;4996510;28;20051;-51
2022/09/28 00:08:55;;;;;;;0.38;0.38;;;;;;;16.53;100.00;99386.28;4998055;28;20035;-49
2022/09/28 00:11:22;;;;;;;0.88;0.45;;;;;;;17.94;100.00;99390.16;5006760;28;20089;-51
2022/09/28 00:13:52;;;;;;;1.13;1.07;;;;;;;17.62;100.00;99381.41;4992722;28;20042;-50
2022/09/28 00:16:20;;;;;;;0.20;0.20;;;;;;;18.10;100.00;99389.00;5009347;28;20273;-53
2022/09/28 00:18:46;;;;;;;0.47;0.47;;;;;;;17.86;100.00;99386.13;5005845;28;20343;-52
2022/09/28 00:21:14;;;;;;;0.77;0.77;;;;;;;19.06;100.00;99397.69;5009120;28;20280;-51
2022/09/28 00:26:27;;;;;;;0.53;0.53;;;;;;;18.38;100.00;99397.44;4992468;28;20337;-49
2022/09/28 00:28:54;;;;;;;3.80;2.73;;;;;;;18.07;100.00;99403.09;5004248;28;20276;-51
2022/09/28 00:31:20;;;;;;;0.73;0.73;;;;;;;18.22;100.00;99401.34;5013162;28;20269;-52
2022/09/28 00:33:55;;;;;;;2.17;2.08;;;;;;;17.24;100.00;99399.94;4992239;28;20054;-51
2022/09/28 00:36:22;;;;;;;0.83;0.83;;;;;;;18.36;100.00;99396.13;5032232;28;20032;-52
2022/09/28 00:38:47;;;;;;;;;;;;;;;17.06;100.00;99392.16;5012177;28;20283;-53
2022/09/28 00:41:14;;;;;;;0.77;0.77;;;;;;;17.82;100.00;99394.03;5011277;28;19917;-50
2022/09/28 00:43:40;;;;;;;0.40;0.40;;;;;;;16.25;100.00;99388.44;5000383;28;20039;-51
2022/09/28 00:46:17;;;;;;;2.70;0.88;;;;;;;18.27;100.00;99391.31;5004302;28;20038;-53
2022/09/28 00:48:56;;;;;;;0.70;0.70;;;;;;;21.12;100.00;99392.22;5008311;28;20070;-54
2022/09/28 00:51:26;;;;;;;1.70;1.60;;;;;;;20.22;100.00;99402.16;5002205;28;20106;-54
2022/09/28 00:53:54;;;;;;;3.50;1.48;;;;;;;19.09;100.00;99393.56;4994876;28;20368;-53
2022/09/28 00:56:24;;;;;;;3.80;3.30;;;;;;;18.60;100.00;99386.19;4976399;28;20046;-53
2022/09/28 00:58:52;;;;;;;0.93;0.88;;;;;;;18.22;100.00;99393.22;5000356;28;20035;-52
2022/09/28 01:01:18;;;;;;;0.30;0.30;;;;;;;18.46;100.00;99377.09;4991914;28;20045;-54
2022/09/28 01:03:47;;;;;;;0.28;0.28;;;;;;;18.75;100.00;99381.69;5022831;28;20289;-51
2022/09/28 01:06:26;;;;;;;0.33;0.33;;;;;;;18.54;100.00;99371.03;5001494;28;20072;-54
2022/09/28 01:08:55;;;;;;;1.40;1.03;;;;;;;18.36;100.00;99379.91;4987351;28;20356;-50
2022/09/28 01:11:21;;;;;;;1.97;1.80;;;;;;;18.27;100.00;99374.28;4996100;28;20332;-53
2022/09/28 01:13:50;;;;;;;1.27;1.03;;;;;;;17.71;100.00;99368.94;4997304;28;20302;-51
2022/09/28 01:17:00;;;;;;;2.78;2.67;;;;;;;17.90;100.00;99379.09;5000980;28;20037;-53
2022/09/28 01:20:04;;;;;;;5.15;1.75;;;;;;;18.22;100.00;99374.28;4992752;28;20037;-52
2022/09/28 01:22:33;;;;;;;1.50;1.40;;;;;;;17.54;100.00;99377.41;4986196;28;20058;-51
2022/09/28 01:25:11;;;;;;;0.30;0.30;;;;;;;18.09;100.00;99381.16;4996925;28;20035;-51
2022/09/28 01:27:53;;;;;;;0.53;0.53;;;;;;;17.54;100.00;99374.72;4996413;28;20281;-48
2022/09/28 01:30:20;;;;;;;0.20;0.20;;;;;;;17.97;100.00;99370.66;5003036;28;20372;-48
2022/09/28 01:32:54;;;;;;;0.97;0.97;;;;;;;18.08;100.00;99372.25;4993376;28;20277;-48
2022/09/28 01:35:29;;;;;;;1.25;1.20;;;;;;;18.07;100.00;99373.34;4980265;28;20273;-50
2022/09/28 01:38:20;;;;;;;0.40;0.40;;;;;;;18.49;100.00;99374.63;5004408;28;20135;-49
2022/09/28 01:40:47;;;;;;;1.13;1.03;;;;;;;17.33;100.00;99365.88;4981845;28;20110;-50
2022/09/28 01:43:18;;;;;;;6.85;1.98;;;;;;;16.89;100.00;99370.03;5005885;28;20280;-50
2022/09/28 01:45:50;;;;;;;2.28;1.45;;;;;;;17.57;100.00;99371.44;4993706;28;20041;-49
2022/09/28 01:48:21;;;;;;;0.35;0.35;;;;;;;17.97;100.00;99378.78;5013185;28;20037;-49
2022/09/28 01:50:52;;;;;;;1.98;1.88;;;;;;;17.16;100.00;99371.59;4990726;28;20099;-48
2022/09/28 01:53:23;;;;;;;0.95;0.88;;;;;;;17.36;100.00;99368.00;4985103;28;20037;-54
2022/09/28 01:55:56;;;;;;;0.10;0.10;;;;;;;19.81;100.00;99376.41;4976080;28;20028;-51
2022/09/28 01:58:37;;;;;;;0.77;0.77;;;;;;;17.00;100.00;99365.44;4982438;28;20035;-53
2022/09/28 02:01:15;;;;;;;0.35;0.35;;;;;;;18.08;100.00;99372.25;4968984;28;20122;-55
2022/09/28 02:03:51;;;;;;;2.00;1.90;;;;;;;18.02;100.00;99371.47;4953635;28;20031;-51
2022/09/28 02:06:33;;;;;;;1.95;1.85;;;;;;;18.33;100.00;99359.59;4990349;28;20112;-52
2022/09/28 02:09:04;;;;;;;0.25;0.25;;;;;;;16.80;100.00;99352.75;4985734;28;20063;-52
2022/09/28 02:11:43;;;;;;;0.93;0.93;;;;;;;18.49;100.00;99361.09;4973642;28;20057;-47
2022/09/28 02:14:12;;;;;;;2.28;1.40;;;;;;;21.18;100.00;99375.50;4971209;28;20277;-52
2022/09/28 02:16:45;;;;;;;0.50;0.50;;;;;;;19.97;100.00;99379.75;4970959;28;20046;-51
2022/09/28 02:19:16;;;;;;;0.67;0.67;;;;;;;20.15;100.00;99380.81;4980169;28;20274;-50
2022/09/28 02:21:54;;;;;;;0.73;0.73;;;;;;;19.78;100.00;99379.69;4969307;28;20282;-49
2022/09/28 02:24:50;;;;;;;2.87;1.30;;;;;;;19.40;100.00;99379.69;4969829;28;20284;-51
2022/09/28 02:27:37;;;;;;;0.33;0.33;;;;;;;19.29;100.00;99373.56;4972475;28;20269;-50
2022/09/28 02:30:05;;;;;;;0.20;0.20;;;;;;;18.59;100.00;99367.50;4973214;29;20288;-53
2022/09/28 02:32:38;;;;;;;0.50;0.50;;;;;;;19.42;100.00;99374.78;4971893;28;20278;-52
2022/09/28 02:35:08;;;;;;;0.30;0.30;;;;;;;19.19;100.00;99374.50;4982988;28;20336;-51
2022/09/28 02:37:34;;;;;;;0.60;0.60;;;;;;;18.47;100.00;99359.75;4991713;28;20309;-48
2022/09/28 02:39:59;;;;;;;0.43;0.43;;;;;;;18.29;100.00;99355.84;4974605;28;20043;-52
2022/09/28 02:43:01;;;;;;;0.40;0.40;;;;;;;17.11;100.00;99358.13;4958358;28;20039;-52
2022/09/28 02:45:47;;;;;;;1.70;0.50;;;;;;;17.63;100.00;99350.56;4965293;28;20273;-51
2022/09/28 02:48:24;;;;;;;0.30;0.30;;;;;;;17.76;100.00;99360.78;5002205;28;20280;-48
2022/09/28 02:51:08;;;;;;;5.38;0.52;;;;;;;18.30;100.00;99357.47;4974945;28;20278;-53
2022/09/28 02:53:49;;;;;;;1.07;1.03;;;;;;;19.29;100.00;99368.16;4980722;28;20051;-49
2022/09/28 02:56:34;;;;;;;0.90;0.90;;;;;;;18.82;100.00;99365.09;4992744;28;20273;-50
2022/09/28 02:59:19;;;;;;;0.83;0.83;;;;;;;18.58;100.00;99371.28;4985453;28;20261;-54
2022/09/28 03:02:12;;;;;;;1.13;1.10;;;;;;;18.84;100.00;99371.03;4976280;28;20277;-50
2022/09/28 03:04:58;;;;;;;0.50;0.50;;;;;;;18.14;100.00;99367.63;4982590;28;20273;-54
2022/09/28 03:07:32;;;;;;;0.43;0.43;;;;;;;18.04;100.00;99369.28;4979358;28;20258;-53
2022/09/28 03:10:04;;;;;;;1.10;1.10;;;;;;;17.75;100.00;99366.47;4978852;28;20813;-47
2022/09/28 03:12:32;;;;;;;0.80;0.80;;;;;;;17.62;100.00;99362.47;4971856;29;20274;-48
2022/09/28 03:15:18;;;;;;;1.23;1.13;;;;;;;18.46;100.00;99367.09;4981951;28;20281;-52
2022/09/28 03:17:44;;;;;;;0.52;0.47;;;;;;;18.85;100.00;99370.78;4993544;28;20293;-53
2022/09/28 03:20:11;;;;;;;0.10;0.10;;;;;;;18.61;100.00;99376.13;4983937;28;20062;-53
2022/09/28 03:22:37;;;;;;;2.75;2.50;;;;;;;18.19;100.00;99371.06;4981136;28;20288;-54
2022/09/28 03:25:05;;;;;;;0.30;0.30;;;;;;;19.86;100.00;99379.06;4978678;28;20032;-54
2022/09/28 03:27:31;;;;;;;5.33;3.60;;;;;;;17.92;100.00;99372.31;4978336;28;20278;-48
2022/09/28 03:29:57;;;;;;;0.28;0.28;;;;;;;17.82;100.00;99372.38;4987702;28;20753;-51
2022/09/28 03:32:23;;;;;;;0.90;0.90;;;;;;;17.75;100.00;99370.00;4974432;28;20031;-51
2022/09/28 03:34:49;;;;;;;3.92;3.25;;;;;;;18.37;100.00;99371.47;4989035;28;20031;-51
2022/09/28 03:37:14;;;;;;;0.10;0.10;;;;;;;18.02;100.00;99376.09;4980665;28;20043;-52
2022/09/28 03:39:40;;;;;;;0.20;0.20;;;;;;;18.19;100.00;99370.28;4973359;28;20061;-54
2022/09/28 03:42:05;;;;;;;0.70;0.43;;;;;;;18.11;100.00;99374.38;5004259;28;20092;-53
2022/09/28 03:44:34;;;;;;;0.10;0.10;;;;;;;17.93;100.00;99375.84;4968158;29;20038;-51
2022/09/28 03:47:00;;;;;;;0.10;0.10;;;;;;;18.17;100.00;99367.84;4982809;28;20095;-54
2022/09/28 03:49:25;;;;;;;0.30;0.30;;;;;;;18.78;100.00;99370.28;4982890;28;20031;-55
2022/09/28 03:51:51;;;;;;;11.13;0.77;;;;;;;18.20;100.00;99378.09;4995696;28;20105;-53
2022/09/28 03:54:17;;;;;;;0.10;0.10;;;;;;;18.76;100.00;99373.28;5003912;28;20042;-49
2022/09/28 03:56:43;;;;;;;0.30;0.30;;;;;;;18.51;100.00;99370.81;5002889;28;20031;-48
2022/09/28 03:59:09;;;;;;;0.10;0.10;;;;;;;19.17;100.00;99376.69;5000667;28;20054;-52
2022/09/28 04:01:35;;;;;;;0.10;0.10;;;;;;;19.31;100.00;99366.75;5010854;28;20075;-51
2022/09/28 04:04:01;;;;;;;0.10;0.10;;;;;;;19.52;100.00;99377.34;5003931;28;20831;-53
2022/09/28 04:06:28;;;;;;;0.10;0.10;;;;;;;19.47;100.00;99372.00;5015293;28;20043;-52
2022/09/28 04:08:53;;;;;;;0.10;0.10;;;;;;;18.75;100.00;99366.25;5020821;28;20484;-53
2022/09/28 04:11:19;;;;;;;0.20;0.20;;;;;;;19.06;100.00;99370.59;4992602;28;20061;-52
2022/09/28 04:13:48;;;;;;;0.32;0.32;;;;;;;19.04;100.00;99368.16;5013202;28;20150;-54
2022/09/28 04:16:15;;;;;;;0.10;0.10;;;;;;;19.23;100.00;99369.28;5008963;28;20049;-54
2022/09/28 04:18:46;;;;;;;0.22;0.22;;;;;;;19.83;100.00;99374.19;4988992;28;20495;-52
2022/09/28 04:21:31;;;;;;;0.30;0.30;;;;;;;19.17;100.00;99365.84;5001846;28;20027;-55
2022/09/28 04:24:06;;;;;;;0.40;0.40;;;;;;;19.02;100.00;99374.94;4972985;28;20035;-53
2022/09/28 04:26:32;;;;;;;0.10;0.10;;;;;;;18.48;100.00;99367.59;5013887;28;20046;-58
2022/09/28 04:29:15;;;;;;;0.20;0.20;;;;;;;18.60;100.00;99372.63;5005272;28;20032;-53
2022/09/28 04:32:00;;;;;;;0.95;0.95;;;;;;;18.86;100.00;99371.56;5022619;28;20031;-54
2022/09/28 04:34:32;;;;;;;0.10;0.10;;;;;;;18.90;100.00;99372.59;4989106;28;20031;-53
2022/09/28 04:36:57;;;;;;;0.10;0.10;;;;;;;18.95;100.00;99375.28;5009992;28;20070;-53
2022/09/28 04:39:23;;;;;;;0.10;0.10;;;;;;;19.44;100.00;99383.41;4993845;28;20039;-53
2022/09/28 04:41:54;;;;;;;0.10;0.10;;;;;;;18.37;100.00;99385.00;4992042;28;20057;-56
2022/09/28 04:44:20;;;;;;;0.10;0.10;;;;;;;18.84;100.00;99381.88;4997800;28;20046;-54
2022/09/28 04:46:47;;;;;;;0.10;0.10;;;;;;;18.82;100.00;99384.06;5013741;28;20056;-54
2022/09/28 04:49:28;;;;;;;0.32;0.32;;;;;;;16.85;100.00;99385.16;4986029;28;20425;-52
2022/09/28 04:52:04;;;;;;;0.95;0.95;;;;;;;16.14;100.00;99393.81;5002789;28;20540;-54
2022/09/28 04:54:29;;;;;;;0.40;0.40;;;;;;;16.41;100.00;99389.25;4985042;28;20085;-53
2022/09/28 04:56:56;;;;;;;0.10;0.10;;;;;;;17.76;100.00;99389.69;5002619;28;20027;-55
2022/09/28 04:59:21;;;;;;;0.10;0.10;;;;;;;17.69;100.00;99389.22;4973875;28;20042;-53
2022/09/28 05:01:48;;;;;;;0.13;0.13;;;;;;;17.70;100.00;99390.81;5007765;28;20057;-52
2022/09/28 05:04:33;;;;;;;0.20;0.20;;;;;;;17.74;100.00;99394.59;4992326;28;20125;-54
2022/09/28 05:07:17;;;;;;;0.10;0.10;;;;;;;17.84;100.00;99393.72;4989781;28;20046;-52
2022/09/28 05:09:42;;;;;;;0.30;0.30;;;;;;;17.87;100.00;99385.88;5012843;28;20039;-53
2022/09/28 05:12:08;;;;;;;0.10;0.10;;;;;;;18.45;100.00;99384.41;4989036;28;20055;-53
2022/09/28 05:14:35;;;;;;;0.20;0.20;;;;;;;18.60;100.00;99391.59;5018431;28;20036;-52
2022/09/28 05:17:02;;;;;;;2.13;1.95;;;;;;;18.19;100.00;99387.28;5024370;28;20031;-51
2022/09/28 05:19:57;;;;;;;0.10;0.10;;;;;;;18.12;100.00;99389.53;4999961;28;20035;-51
2022/09/28 05:22:23;;;;;;;0.10;0.10;;;;;;;18.53;100.00;99387.59;5001380;28;20065;-53
2022/09/28 05:24:48;;;;;;;0.10;0.10;;;;;;;17.90;100.00;99385.31;5008338;28;20046;-51
2022/09/28 05:27:15;;;;;;;;;;;;;;;18.18;100.00;99393.78;4983227;28;20090;-50
2022/09/28 05:29:44;;;;;;;0.20;0.20;;;;;;;17.58;100.00;99394.69;4993749;28;19990;-51
2022/09/28 05:32:28;;;;;;;6.57;1.98;;;;;;;17.36;100.00;99391.53;4989921;28;20039;-53
2022/09/28 05:35:00;;;;;;;0.10;0.10;;;;;;;16.88;100.00;99396.22;5028127;28;20026;-49
2022/09/28 05:37:29;;;;;;;0.65;0.65;;;;;;;17.19;100.00;99392.66;4985362;28;20066;-50
2022/09/28 05:39:56;;;;;;;0.20;0.20;;;;;;;17.01;100.00;99402.19;5023656;28;20049;-53
2022/09/28 05:42:21;;;;;;;0.10;0.10;;;;;;;17.17;100.00;99398.31;4991508;28;20039;-52
2022/09/28 05:44:47;;;;;;;0.40;0.40;;;;;;;17.64;100.00;99408.97;5032698;28;20052;-54
2022/09/28 05:47:12;;;;;;;0.10;0.10;;;;;;;17.65;100.00;99394.38;5000050;28;20044;-55
2022/09/28 05:49:37;;;;;;;0.10;0.10;;;;;;;17.18;100.00;99407.25;4982439;28;20045;-54
2022/09/28 05:52:04;;;;;;;0.30;0.30;;;;;;;16.96;100.00;99411.06;5006434;28;20277;-53
2022/09/28 05:54:32;;;;;;;0.10;0.10;;;;;;;17.08;100.00;99408.09;5008528;28;20034;-52
2022/09/28 05:56:57;;;;;;;0.10;0.10;;;;;;;16.98;100.00;99402.69;4994212;28;20268;-52
2022/09/28 05:59:22;;;;;;;0.20;0.20;;;;;;;17.32;100.00;99400.19;5008549;28;20038;-53
2022/09/28 06:01:48;;;;;;;0.63;0.63;;;;;;;17.02;100.00;99409.19;5002106;28;20059;-51
2022/09/28 06:04:14;;;;;;;0.67;0.67;;;;;;;17.26;100.00;99409.38;4997021;28;20040;-49
2022/09/28 06:06:42;;;;;;;0.20;0.20;;;;;;;16.75;100.00;99405.69;4990756;28;20276;-53
2022/09/28 06:09:08;;;;;;;1.38;1.27;;;;;;;16.88;100.00;99414.31;4981315;28;20083;-49
2022/09/28 06:12:14;;;;;;;3.30;1.50;;;;;;;17.25;100.00;99402.34;4980901;28;20041;-53
2022/09/28 06:14:48;;;;;;;0.10;0.10;;;;;;;17.42;100.00;99406.63;5010323;28;20057;-54
2022/09/28 06:17:14;;;;;;;0.20;0.20;;;;;;;17.20;100.00;99407.78;5026031;28;20058;-53
2022/09/28 06:19:43;;;;;;;0.10;0.10;;;;;;;17.14;100.00;99401.59;4990604;28;20027;-53
2022/09/28 06:22:24;;;;;;;0.13;0.13;;;;;;;17.29;100.00;99411.53;5001171;28;20034;-50
2022/09/28 06:24:59;;;;;;;0.30;0.30;;;;;;;17.29;100.00;99414.22;4997025;28;20109;-51
2022/09/28 06:27:24;;;;;;;0.10;0.10;;;;;;;17.18;100.00;99410.78;5019310;28;20366;-51
2022/09/28 06:29:51;;;;;;;1.50;1.40;;;;;;;17.27;100.00;99421.00;4995705;28;20106;-52
2022/09/28 06:32:17;;;;;;;2.45;1.42;;;;;;;17.48;100.00;99422.56;5003418;28;20096;-54
2022/09/28 06:34:46;;;;;;;0.30;0.30;;;;;;;17.42;100.00;99420.16;4979491;28;20027;-52
2022/09/28 06:37:11;;;;;;;6.47;2.75;;;;;;;17.18;100.00;99418.06;4986427;28;20031;-51
2022/09/28 06:39:36;;;;;;;0.50;0.50;;;;;;;17.33;100.00;99423.44;4998385;28;20088;-50
2022/09/28 06:42:04;;;;;;;2.80;2.60;;;;;;;16.84;100.00;99415.91;4989054;28;20095;-52
2022/09/28 06:44:51;;;;;;;0.30;0.30;;;;;;;16.86;100.00;99419.19;5005187;28;20300;-49
2022/09/28 06:47:28;;;;;;;0.30;0.30;;;;;;;16.95;100.00;99419.41;5009866;28;20277;-51
2022/09/28 06:50:11;;;;;;;0.20;0.20;;;;;;;16.89;100.00;99429.44;4975210;28;20306;-53
2022/09/28 06:52:57;;;;;;;0.97;0.67;;;;;;;16.61;100.00;99423.53;4970968;28;20277;-50
2022/09/28 06:55:29;;;;;;;1.50;1.40;;;;;;;16.81;100.00;99422.69;4995424;28;20298;-53
2022/09/28 06:58:01;;;;;;;0.10;0.10;;;;;;;17.19;100.00;99422.38;4983382;28;20278;-54
2022/09/28 07:00:29;;;;;;;0.20;0.20;;;;;;;18.00;100.00;99424.22;4970397;28;20289;-53
2022/09/28 07:02:55;;;;;;;0.20;0.20;;;;;;;17.76;100.00;99432.97;4978817;28;20274;-53
2022/09/28 07:05:47;;;;;;;0.20;0.20;;;;;;;17.63;100.00;99428.97;4975456;28;20284;-52
2022/09/28 07:08:31;;;;;;;0.10;0.10;;;;;;;16.74;100.00;99441.84;4982640;28;20332;-52
2022/09/28 07:11:06;;;;;;;0.20;0.20;;;;;;;17.37;100.00;99447.19;4973003;28;20282;-54
2022/09/28 07:13:51;;;;;;;0.47;0.47;;;;;;;17.62;100.00;99449.81;4992481;28;20321;-54
2022/09/28 07:16:20;;;;;;;0.30;0.30;;;;;;;17.31;100.00;99454.50;4974198;28;20380;-51
2022/09/28 07:18:46;;;;;;;0.10;0.10;;;;;;;17.85;100.00;99457.53;4970685;28;20270;-49
2022/09/28 07:21:12;;;;;;;0.10;0.10;;;;;;;17.29;100.00;99457.47;4969966;28;20031;-53
2022/09/28 07:23:40;;;;;;;1.30;0.87;;;;;;;17.79;100.00;99454.06;4968772;28;20109;-54
2022/09/28 07:26:26;;;;;;;0.10;0.10;;;;;;;18.48;100.00;99459.63;4985228;28;20292;-56
2022/09/28 07:29:00;;;;;;;0.10;0.10;;;;;;;18.24;100.00;99458.72;4987730;28;20360;-48
2022/09/28 07:31:44;;;;;;;0.10;0.10;;;;;;;18.52;100.00;99469.91;4982609;28;20268;-52
2022/09/28 07:34:28;;;;;;;0.20;0.20;;;;;;;18.34;100.00;99467.59;4992930;28;20283;-52
2022/09/28 07:37:01;;;;;;;3.50;1.23;;;;;;;18.35;100.00;99471.09;4979814;28;21175;-54
2022/09/28 07:39:27;;;;;;;0.10;0.10;;;;;;;19.37;100.00;99477.81;4973024;28;20273;-51
2022/09/28 07:41:53;;;;;;;0.17;0.17;;;;;;;19.08;100.00;99475.94;4970212;28;20055;-53
2022/09/28 07:44:19;;;;;;;0.32;0.32;;;;;;;19.20;100.00;99481.78;4972941;28;20035;-54
2022/09/28 07:46:49;;;;;;;0.23;0.23;;;;;;;19.19;100.00;99485.59;4982283;28;20050;-53
2022/09/28 07:49:23;;;;;;;0.13;0.13;;;;;;;18.88;100.00;99488.53;4982902;28;20281;-52
2022/09/28 07:52:12;;;;;;;0.20;0.20;;;;;;;18.97;100.00;99492.28;5008859;28;20289;-53
2022/09/28 07:54:57;;;;;;;2.90;1.40;;;;;;;18.26;100.00;99484.41;5011413;28;20268;-49
2022/09/28 07:57:41;;;;;;;0.10;0.10;;;;;;;18.43;100.00;99496.75;5017996;28;20300;-52
2022/09/28 08:00:22;;;;;;;0.10;0.10;;;;;;;18.10;100.00;99489.09;5017479;28;21608;-51
2022/09/28 08:02:48;;;;;;;0.10;0.10;;;;;;;18.72;100.00;99494.09;5011506;28;20266;-52
2022/09/28 08:05:23;;;;;;;0.20;0.20;;;;;;;17.36;100.00;99494.22;5013808;28;20039;-52
2022/09/28 08:07:49;;;;;;;0.10;0.10;;;;;;;19.66;100.00;99495.94;5025702;28;20380;-54
2022/09/28 08:10:16;;;;;;;;;;;;;;;19.32;100.00;99498.47;4992526;28;20029;-53
2022/09/28 08:13:15;;;;;;;0.20;0.20;;;;;;;19.75;100.00;99502.34;5007021;28;20019;-52
2022/09/28 08:15:53;;;;;;;0.17;0.17;;;;;;;17.42;100.00;99498.50;5009774;28;20054;-51
2022/09/28 08:18:51;;;;;;;0.10;0.10;;;;;;;18.47;100.00;99501.31;4996017;28;20315;-52
2022/09/28 08:24:01;;;;;;;0.10;0.10;;;;;;;20.32;100.00;99515.22;5029694;28;20033;-52
2022/09/28 08:26:28;;;;;;;0.10;0.10;;;;;;;17.94;100.00;99504.56;5019384;28;20289;-53
2022/09/28 08:28:53;;;;;;;3.70;2.00;;;;;;;18.00;100.00;99506.16;5013722;28;20274;-54
2022/09/28 08:31:54;;;;;;;0.13;0.13;;;;;;;18.36;100.00;99505.16;4933727;28;20302;-52
2022/09/28 08:34:37;;;;;;;0.13;0.13;;;;;;;18.57;100.00;99511.28;4993959;28;20275;-55
2022/09/28 08:37:15;;;;;;;0.53;0.53;;;;;;;19.35;100.00;99513.34;5013407;28;20332;-55
2022/09/28 08:39:44;;;;;;;0.17;0.17;;;;;;;20.63;100.00;99525.63;5023392;28;20278;-51
2022/09/28 08:42:41;;;;;;;0.50;0.50;;;;;;;22.51;100.00;99537.41;4987674;28;20272;-54
2022/09/28 08:45:45;;;;;;;0.10;0.10;;;;;;;23.15;100.00;99529.03;5009283;28;20113;-51
2022/09/28 08:48:43;;;;;;;0.10;0.10;;;;;;;23.63;100.00;99532.97;5005264;28;20093;-51
2022/09/28 08:51:57;;;;;;;7.53;0.53;;;;;;;24.40;94.51;99542.78;4916380;28;20050;-49
2022/09/28 08:55:01;;;;;;;0.43;0.43;;;;;;;21.67;100.00;99548.34;4956482;28;20062;-57
2022/09/28 08:57:57;;;;;;;0.17;0.17;;;;;;;23.78;94.13;99545.38;4960736;28;20039;-53
2022/09/28 09:00:47;;;;;;;0.10;0.10;;;;;;;23.61;99.75;99551.59;4952194;29;20034;-53
2022/09/28 09:03:18;;;;;;;0.10;0.10;;;;;;;25.35;88.59;99550.44;4951583;28;20040;-52
2022/09/28 09:06:06;;;;;;;0.43;0.43;;;;;;;26.28;79.86;99565.47;4949954;29;20036;-49
2022/09/28 09:08:56;;;;;;;0.60;0.60;;;;;;;26.54;81.62;99557.06;4953860;28;20032;-54
2022/09/28 09:11:43;;;;;;;0.20;0.20;;;;;;;25.99;77.12;99565.16;4951780;29;20042;-54
2022/09/28 09:14:30;;;;;;;0.20;0.20;;;;;;;25.40;88.31;99553.00;4952348;28;20035;-50
2022/09/28 09:17:06;;;;;;;;;;;;;;;26.62;74.25;99560.88;4964284;28;20047;-56
2022/09/28 09:20:32;;;;;;;3.80;1.70;;;;;;;29.37;64.13;99576.91;4948565;29;19986;-52
2022/09/28 09:23:30;;;;;;;0.10;0.10;;;;;;;30.17;62.88;99579.66;4961212;28;20040;-52
2022/09/28 09:26:09;;;;;;;0.10;0.10;;;;;;;29.41;60.07;99585.31;4962093;28;20064;-53
2022/09/28 09:28:56;;;;;;;0.37;0.37;;;;;;;30.32;58.22;99596.53;4963192;28;20166;-53
2022/09/28 09:31:51;;;;;;;1.90;0.30;;;;;;;28.69;58.60;99587.66;4963417;28;20032;-54
2022/09/28 09:34:45;;;;;;;0.30;0.30;;;;;;;28.02;66.47;99582.50;4948550;28;20043;-51
2022/09/28 09:38:01;;;;;;;2.60;1.30;;;;;;;29.46;62.26;99590.53;4956142;28;20109;-53
2022/09/28 09:41:26;;;;;;;4.82;1.67;;;;;;;31.09;56.48;99590.59;4950791;29;20044;-54
2022/09/28 09:44:15;;;;;;;2.25;0.73;;;;;;;28.35;63.98;99578.81;4966272;28;20107;-51
2022/09/28 09:47:17;;;;;;;6.28;1.13;;;;;;;27.34;66.38;99590.88;4956999;28;20119;-53
2022/09/28 09:50:00;;;;;;;2.33;0.63;;;;;;;31.85;54.94;99601.03;4954687;28;20059;-50
2022/09/28 09:52:37;;;;;;;3.05;0.85;;;;;;;32.64;50.45;99611.63;4974223;28;20036;-54
2022/09/28 09:55:23;;;;;;;1.50;0.70;;;;;;;32.58;48.24;99607.59;4983713;28;20046;-51
2022/09/28 09:58:25;;;;;;;2.72;0.50;;;;;;;29.44;59.16;99601.09;4988193;28;20051;-53
2022/09/28 10:01:06;;;;;;;1.92;0.88;;;;;;;30.46;53.25;99596.84;4983035;28;20063;-52
2022/09/28 10:04:05;;;;;;;4.68;1.38;;;;;;;30.07;54.59;99599.50;4993043;28;20139;-56
2022/09/28 10:06:35;;;;;;;3.97;1.48;;;;;;;31.57;48.63;99609.63;4982415;28;20080;-53
2022/09/28 10:09:04;;;;;;;1.63;0.88;;;;;;;33.23;46.93;99611.13;4981690;28;20097;-56
2022/09/28 10:11:35;;;;;;;1.40;0.38;;;;;;;30.44;53.93;99606.63;4989942;28;20035;-52
2022/09/28 10:14:03;;;;;;;1.67;0.50;;;;;;;31.41;46.12;99602.25;4988001;28;20039;-53
2022/09/28 10:16:39;;;;;;;2.22;0.88;;;;;;;36.09;37.63;99614.41;4982700;28;20060;-55
2022/09/28 10:19:12;;;;;;;1.02;0.22;;;;;;;32.22;44.80;99596.03;4976826;28;20111;-51
2022/09/28 10:21:58;;;;;;;0.38;0.38;;;;;;;31.94;45.03;99597.22;4975474;28;20051;-52
2022/09/28 10:24:34;;;;;;;0.55;0.40;;;;;;;35.26;38.39;99612.38;4984485;28;20019;-52
2022/09/28 10:27:06;;;;;;;2.20;0.70;;;;;;;34.43;39.15;99609.28;4975613;28;20039;-55
2022/09/28 10:29:43;;;;;;;3.28;1.48;;;;;;;34.33;40.24;99610.81;4973652;28;20031;-55
2022/09/28 10:32:21;;;;;;;1.50;0.70;;;;;;;35.51;38.07;99616.38;4974821;28;20027;-55
2022/09/28 10:35:09;;;;;;;1.65;0.77;;;;;;;33.25;36.00;99605.19;4980953;28;20022;-55
2022/09/28 10:38:05;;;;;;;2.57;0.90;;;;;;;31.54;37.50;99593.78;4987814;28;20051;-55
2022/09/28 10:40:47;;;;;;;;;;;;;;;33.26;40.98;99607.59;4973782;28;20027;-53
2022/09/28 10:43:33;;;;;;;1.02;0.57;;;;;;;35.01;36.30;99615.13;4958847;28;19925;-55
2022/09/28 10:46:20;;;;;;;2.85;0.32;;;;;;;35.95;32.19;99609.63;4972620;28;20042;-52
2022/09/28 10:48:58;;;;;;;4.15;1.13;;;;;;;36.10;32.09;99609.59;4980200;28;20035;-51
2022/09/28 10:51:41;;;;;;;4.57;1.83;;;;;;;33.84;34.22;99608.09;4979373;28;20051;-54
2022/09/28 10:54:15;;;;;;;4.65;2.60;;;;;;;31.81;37.03;99604.91;4978759;28;20035;-53
2022/09/28 10:56:45;;;;;;;1.30;0.52;;;;;;;30.26;38.67;99600.72;4984143;28;20031;-52
2022/09/28 10:59:29;;;;;;;0.30;0.30;;;;;;;30.64;37.32;99599.19;4976378;28;20044;-54
2022/09/28 11:02:22;;;;;;;1.02;0.52;;;;;;;32.89;35.24;99600.09;4973918;28;20067;-52
2022/09/28 11:04:56;;;;;;;1.67;0.70;;;;;;;33.24;35.56;99603.59;4981575;28;20059;-53
2022/09/28 11:07:25;;;;;;;2.45;0.40;;;;;;;32.71;34.92;99597.09;4971028;28;20031;-55
2022/09/28 11:09:53;;;;;;;5.47;1.02;;;;;;;32.42;35.44;99597.50;4974283;29;20031;-56
2022/09/28 11:12:25;;;;;;;2.45;0.52;;;;;;;34.40;32.11;99608.09;4978637;28;20033;-53
2022/09/28 11:15:04;;;;;;;0.75;0.40;;;;;;;32.29;34.04;99598.88;4977842;28;21676;-55
2022/09/28 11:17:32;;;;;;;1.42;0.80;;;;;;;33.97;32.40;99599.53;4971395;28;20038;-55
2022/09/28 11:20:18;;;;;;;2.65;0.55;;;;;;;33.89;32.37;99601.41;4994377;28;20078;-53
2022/09/28 11:22:47;;;;;;;1.92;0.80;;;;;;;33.81;31.92;99608.09;4971998;28;20031;-56
2022/09/28 11:25:15;;;;;;;0.75;0.43;;;;;;;33.85;33.10;99606.91;4987028;28;20061;-55
2022/09/28 11:28:03;;;;;;;1.45;0.40;;;;;;;33.45;33.97;99603.06;4971432;28;20035;-56
2022/09/28 11:31:00;;;;;;;1.98;0.30;;;;;;;31.08;36.64;99598.09;4970360;28;20042;-55
2022/09/28 11:33:32;;;;;;;1.02;0.40;;;;;;;30.83;37.22;99592.06;5002615;28;20044;-53
2022/09/28 11:36:58;;;;;;;1.42;0.45;;;;;;;33.99;35.50;99595.16;4972171;28;24333;-51
2022/09/28 11:39:38;;;;;;;1.98;0.80;;;;;;;36.22;31.79;99594.50;4971571;28;20042;-56
2022/09/28 11:42:23;;;;;;;3.78;1.23;;;;;;;36.86;31.10;99601.81;4972890;28;20088;-54
2022/09/28 11:44:59;;;;;;;3.95;1.35;;;;;;;36.38;29.50;99608.75;4970487;28;20039;-54
2022/09/28 11:47:44;;;;;;;2.00;0.40;;;;;;;33.29;31.80;99590.22;4981224;28;20059;-53
2022/09/28 11:50:20;;;;;;;3.42;0.47;;;;;;;32.89;32.84;99584.28;4998554;28;20049;-53
2022/09/28 11:52:58;;;;;;;1.15;0.60;;;;;;;30.41;35.16;99588.84;5055594;28;20037;-54
2022/09/28 11:55:40;;;;;;;0.85;0.30;;;;;;;30.59;35.53;99578.19;5065154;28;20033;-54
2022/09/28 11:58:28;;;;;;;1.60;0.43;;;;;;;29.87;38.62;99571.88;5056216;28;20033;-54
2022/09/28 12:01:28;;;;;;;2.03;0.50;;;;;;;27.18;41.59;99570.72;5060015;28;20037;-51
2022/09/28 12:04:13;;;;;;;2.27;0.50;;;;;;;28.08;42.64;99572.88;5053009;28;20030;-54
2022/09/28 12:06:46;;;;;;;0.60;0.30;;;;;;;30.04;41.21;99576.22;5054866;28;20033;-55
2022/09/28 12:09:21;;;;;;;2.47;0.90;;;;;;;29.58;38.26;99578.63;5058186;28;20024;-50
2022/09/28 12:12:24;;;;;;;1.83;0.80;;;;;;;30.92;37.81;99578.88;5053157;28;20052;-54
2022/09/28 12:14:58;;;;;;;2.60;0.80;;;;;;;28.86;40.43;99575.59;5052230;28;20036;-54
2022/09/28 12:17:37;;;;;;;5.17;0.40;;;;;;;27.90;45.32;99577.81;5061449;28;20045;-51